Time;durP1;ratioP1;P1;durP2;ratioP2;P2;SDS_P1;SDS_P2;PMS_P1;PMS_P2;Temp;Humidity;BMP_temperature;BMP_pressure;BME280_temperature;BME280_humidity;BME280_pressure;Samples;Min_cycle;Max_cycle;Signal;HPM_P1;HPM_P2
2022/10/21 00:01:35;;;;;;;32.23;29.10;;;14.60;98.00;;;;;;5079290;28;20464;-78
2022/10/21 00:04:03;;;;;;;29.87;26.87;;;14.60;98.00;;;;;;5058137;28;20514;-78
2022/10/21 00:06:30;;;;;;;32.37;29.07;;;14.60;97.90;;;;;;5060917;28;20954;-78
2022/10/21 00:08:57;;;;;;;31.40;28.30;;;14.50;98.00;;;;;;5074489;28;20551;-78
2022/10/21 00:11:24;;;;;;;34.73;28.63;;;14.50;98.20;;;;;;5074284;28;20985;-78
2022/10/21 00:13:50;;;;;;;30.27;27.27;;;14.50;98.20;;;;;;5072664;28;20467;-78
2022/10/21 00:16:18;;;;;;;30.30;27.20;;;14.50;98.00;;;;;;5053445;28;20458;-78
2022/10/21 00:18:48;;;;;;;30.23;27.30;;;14.40;98.20;;;;;;5067001;28;20461;-78
2022/10/21 00:21:17;;;;;;;31.20;28.10;;;14.40;98.40;;;;;;5063032;28;20457;-78
2022/10/21 00:23:44;;;;;;;28.73;26.10;;;14.30;98.60;;;;;;5072681;28;20487;-78
2022/10/21 00:26:12;;;;;;;30.33;27.73;;;14.30;98.90;;;;;;5073599;28;20559;-78
2022/10/21 00:28:39;;;;;;;28.93;26.37;;;14.20;99.10;;;;;;5088210;28;20498;-78
2022/10/21 00:31:07;;;;;;;30.33;26.50;;;14.20;99.20;;;;;;5077759;28;20453;-78
2022/10/21 00:33:34;;;;;;;28.77;25.93;;;14.20;99.20;;;;;;5071142;28;20481;-78
2022/10/21 00:36:05;;;;;;;27.77;25.17;;;14.20;99.00;;;;;;5089056;28;21001;-78
2022/10/21 00:38:33;;;;;;;28.10;25.40;;;14.20;99.20;;;;;;5068198;28;20485;-78
2022/10/21 00:41:00;;;;;;;27.93;25.30;;;14.20;99.20;;;;;;5073073;28;20558;-78
2022/10/21 00:43:28;;;;;;;28.70;25.80;;;14.20;99.30;;;;;;5063844;28;20479;-78
2022/10/21 00:46:00;;;;;;;29.23;26.53;;;14.20;99.20;;;;;;5068623;28;21029;-78
2022/10/21 00:48:32;;;;;;;29.60;26.80;;;14.20;99.20;;;;;;5063438;28;20467;-78
2022/10/21 00:51:04;;;;;;;29.37;26.47;;;14.20;99.20;;;;;;5074259;28;20934;-78
2022/10/21 00:53:32;;;;;;;29.33;26.73;;;14.20;99.30;;;;;;5070952;28;20550;-78
2022/10/21 00:56:03;;;;;;;28.30;25.50;;;14.20;99.10;;;;;;5058270;28;20481;-78
2022/10/21 00:58:33;;;;;;;29.87;26.60;;;14.30;98.80;;;;;;5071183;28;20894;-78
2022/10/21 01:01:03;;;;;;;28.20;25.70;;;14.30;98.90;;;;;;5069046;28;20557;-78
2022/10/21 01:03:31;;;;;;;28.70;25.67;;;14.30;98.90;;;;;;5075497;28;20499;-78
2022/10/21 01:06:02;;;;;;;28.67;25.83;;;14.20;99.20;;;;;;5060428;28;20487;-78
2022/10/21 01:08:30;;;;;;;27.40;24.70;;;14.20;99.20;;;;;;5062272;28;20454;-78
2022/10/21 01:10:59;;;;;;;27.40;25.00;;;14.30;99.10;;;;;;5071903;28;20540;-78
2022/10/21 01:13:36;;;;;;;26.33;23.90;;;14.30;99.10;;;;;;5072892;28;20460;-78
2022/10/21 01:16:14;;;;;;;28.33;25.63;;;14.30;98.90;;;;;;5088990;28;20495;-78
2022/10/21 01:18:47;;;;;;;27.53;24.93;;;14.30;98.80;;;;;;5071012;28;20549;-78
2022/10/21 01:21:29;;;;;;;30.70;25.83;;;14.20;98.80;;;;;;5061481;28;20454;-78
2022/10/21 01:24:36;;;;;;;29.10;26.33;;;14.30;98.70;;;;;;5067742;28;20484;-78
2022/10/21 01:27:16;;;;;;;29.60;25.13;;;14.20;98.90;;;;;;5073925;28;20557;-78
2022/10/21 01:30:28;;;;;;;27.47;24.77;;;14.10;98.90;;;;;;5085435;28;20457;-77
2022/10/21 01:33:38;;;;;;;27.20;24.70;;;14.20;98.60;;;;;;5066888;28;20462;-78
2022/10/21 01:36:14;;;;;;;43.83;24.33;;;14.10;98.40;;;;;;5033322;28;20627;-78
2022/10/21 01:38:43;;;;;;;26.17;23.60;;;14.20;98.30;;;;;;5073353;28;20483;-78
2022/10/21 01:41:17;;;;;;;25.93;23.40;;;14.10;98.60;;;;;;5074393;28;20453;-77
2022/10/21 01:43:51;;;;;;;26.10;23.37;;;14.00;98.90;;;;;;5076637;28;20474;-78
2022/10/21 01:46:26;;;;;;;26.17;24.07;;;14.00;98.90;;;;;;5076431;28;20458;-77
2022/10/21 01:48:57;;;;;;;26.33;23.50;;;14.00;98.80;;;;;;5090079;28;20460;-78
2022/10/21 01:51:27;;;;;;;25.50;23.20;;;14.00;99.10;;;;;;5071529;28;21104;-78
2022/10/21 01:54:00;;;;;;;26.23;23.70;;;14.00;99.20;;;;;;5072298;28;20502;-78
2022/10/21 01:56:29;;;;;;;25.27;22.97;;;14.00;99.40;;;;;;5065977;28;20457;-77
2022/10/21 01:58:57;;;;;;;25.53;23.27;;;14.00;99.40;;;;;;5074425;28;20971;-77
2022/10/21 02:01:25;;;;;;;24.70;22.37;;;14.10;99.20;;;;;;5071542;28;21464;-77
2022/10/21 02:03:56;;;;;;;23.97;21.53;;;14.10;99.20;;;;;;5086080;28;20933;-77
2022/10/21 02:06:24;;;;;;;23.13;21.03;;;14.10;99.20;;;;;;5075784;28;20461;-77
2022/10/21 02:08:51;;;;;;;25.90;23.70;;;14.20;99.10;;;;;;5075283;28;20465;-77
2022/10/21 02:11:18;;;;;;;22.97;21.00;;;14.20;99.10;;;;;;5059513;28;20465;-78
2022/10/21 02:13:56;;;;;;;24.63;22.43;;;14.20;99.20;;;;;;5083215;28;20464;-78
2022/10/21 02:16:26;;;;;;;24.60;22.23;;;14.30;99.20;;;;;;5075961;28;20460;-77
2022/10/21 02:18:56;;;;;;;25.13;22.93;;;14.40;98.50;;;;;;5089130;28;20447;-78
2022/10/21 02:21:25;;;;;;;24.27;21.87;;;14.40;98.10;;;;;;5063108;28;20465;-78
2022/10/21 02:23:55;;;;;;;23.10;21.07;;;14.30;98.30;;;;;;5071718;28;20481;-78
2022/10/21 02:26:24;;;;;;;22.03;19.87;;;14.30;98.50;;;;;;5066596;28;20568;-78
2022/10/21 02:28:52;;;;;;;24.37;21.97;;;14.30;98.40;;;;;;5080866;28;20471;-78
2022/10/21 02:31:37;;;;;;;22.87;20.87;;;14.30;98.10;;;;;;5067227;28;20994;-78
2022/10/21 02:34:17;;;;;;;22.90;21.00;;;14.40;98.10;;;;;;5060068;28;20995;-78
2022/10/21 02:36:52;;;;;;;23.50;21.40;;;14.30;98.30;;;;;;5070109;28;21039;-78
2022/10/21 02:39:25;;;;;;;23.23;21.40;;;14.30;98.10;;;;;;5058502;28;20556;-78
2022/10/21 02:41:54;;;;;;;23.10;21.37;;;14.30;98.20;;;;;;5054440;28;20465;-77
2022/10/21 02:44:22;;;;;;;24.57;21.70;;;14.20;98.50;;;;;;5072617;28;20562;-77
2022/10/21 02:46:49;;;;;;;24.03;21.70;;;14.20;98.60;;;;;;5072986;28;20985;-77
2022/10/21 02:49:18;;;;;;;24.63;22.37;;;14.20;98.70;;;;;;5068342;28;20468;-77
2022/10/21 02:51:45;;;;;;;36.40;33.93;;;14.30;98.50;;;;;;5060662;28;20470;-77
2022/10/21 02:54:12;;;;;;;37.57;35.27;;;14.30;98.40;;;;;;5068637;28;20474;-77
2022/10/21 02:56:39;;;;;;;24.30;22.30;;;14.30;98.60;;;;;;5068165;28;20467;-77
2022/10/21 02:59:06;;;;;;;22.23;20.03;;;14.30;98.60;;;;;;5068145;28;20468;-77
2022/10/21 03:01:33;;;;;;;24.07;22.20;;;14.30;98.50;;;;;;5066819;28;20458;-77
2022/10/21 03:04:00;;;;;;;25.63;21.70;;;14.40;98.40;;;;;;5056436;28;20483;-77
2022/10/21 03:06:28;;;;;;;28.87;26.63;;;14.40;98.50;;;;;;5078820;28;20460;-77
2022/10/21 03:08:55;;;;;;;22.77;20.67;;;14.50;98.40;;;;;;5056269;28;20621;-78
2022/10/21 03:11:23;;;;;;;23.40;21.30;;;14.50;98.50;;;;;;5063540;28;20516;-78
2022/10/21 03:13:49;;;;;;;23.77;21.87;;;14.50;98.30;;;;;;5073595;28;20771;-78
2022/10/21 03:16:16;;;;;;;29.17;27.03;;;14.50;98.30;;;;;;5087966;28;21016;-77
2022/10/21 03:18:43;;;;;;;31.37;28.87;;;14.60;98.10;;;;;;5085628;28;20993;-77
2022/10/21 03:21:10;;;;;;;25.30;23.30;;;14.50;98.20;;;;;;5070506;28;21078;-77
2022/10/21 03:23:38;;;;;;;23.57;21.23;;;14.50;98.30;;;;;;5069561;28;20477;-77
2022/10/21 03:26:05;;;;;;;28.03;25.50;;;14.50;98.40;;;;;;5071810;28;20483;-78
2022/10/21 03:28:32;;;;;;;34.17;31.63;;;14.60;98.60;;;;;;5080104;28;20467;-78
2022/10/21 03:30:59;;;;;;;24.20;22.10;;;14.70;98.60;;;;;;5073703;28;20456;-78
2022/10/21 03:33:26;;;;;;;26.63;24.17;;;14.70;98.50;;;;;;5057740;28;20846;-78
2022/10/21 03:35:53;;;;;;;23.03;21.10;;;14.80;98.60;;;;;;5087208;28;20476;-78
2022/10/21 03:38:20;;;;;;;27.00;24.80;;;14.90;98.30;;;;;;5068116;28;20496;-76
2022/10/21 03:40:50;;;;;;;22.40;20.40;;;14.90;98.30;;;;;;5068047;28;20953;-77
2022/10/21 03:43:17;;;;;;;24.73;22.50;;;14.90;98.60;;;;;;5068806;28;20541;-77
2022/10/21 03:45:44;;;;;;;35.43;32.93;;;15.00;98.70;;;;;;5081964;28;20480;-77
2022/10/21 03:48:10;;;;;;;27.90;25.60;;;15.10;98.60;;;;;;5073286;28;20453;-78
2022/10/21 03:50:37;;;;;;;20.50;18.70;;;15.10;98.40;;;;;;5067157;28;20536;-78
2022/10/21 03:53:05;;;;;;;20.37;18.60;;;15.10;98.40;;;;;;5056397;28;20494;-78
2022/10/21 03:55:32;;;;;;;27.20;24.87;;;15.20;98.30;;;;;;5071277;28;20502;-78
2022/10/21 03:58:00;;;;;;;25.40;22.73;;;15.30;97.90;;;;;;5077088;28;20449;-77
2022/10/21 04:00:27;;;;;;;23.40;21.00;;;15.30;97.60;;;;;;5080626;28;20543;-77
2022/10/21 04:02:54;;;;;;;22.20;20.10;;;15.30;97.50;;;;;;5055620;28;20470;-77
2022/10/21 04:05:21;;;;;;;26.77;24.73;;;15.40;97.30;;;;;;5066963;28;20482;-77
2022/10/21 04:07:48;;;;;;;22.17;20.10;;;15.40;97.20;;;;;;5073275;28;20462;-77
2022/10/21 04:10:15;;;;;;;24.57;22.13;;;15.30;97.10;;;;;;5066724;28;21031;-77
2022/10/21 04:12:42;;;;;;;27.83;25.63;;;15.30;97.30;;;;;;5069270;28;20452;-77
2022/10/21 04:15:13;;;;;;;34.77;31.73;;;15.30;97.30;;;;;;5068057;28;20504;-77
2022/10/21 04:17:40;;;;;;;31.50;28.77;;;15.30;97.20;;;;;;5072679;28;20946;-77
2022/10/21 04:20:08;;;;;;;22.00;19.93;;;15.30;97.30;;;;;;5083514;28;20467;-77
2022/10/21 04:22:35;;;;;;;23.83;21.67;;;15.20;97.60;;;;;;5051954;28;20998;-73
2022/10/21 04:25:02;;;;;;;30.07;27.87;;;15.30;97.30;;;;;;5089569;28;20847;-77
2022/10/21 04:27:29;;;;;;;23.13;20.97;;;15.30;97.20;;;;;;5062119;28;20458;-77
2022/10/21 04:29:55;;;;;;;27.77;24.90;;;15.30;97.10;;;;;;5055470;28;20450;-77
2022/10/21 04:32:24;;;;;;;38.40;35.20;;;15.40;97.00;;;;;;5064284;28;20454;-77
2022/10/21 04:34:51;;;;;;;21.50;19.50;;;15.40;97.00;;;;;;5068082;28;20565;-77
2022/10/21 04:37:17;;;;;;;36.07;33.40;;;15.30;97.20;;;;;;5054024;28;20457;-77
2022/10/21 04:39:44;;;;;;;21.00;18.90;;;15.40;97.20;;;;;;5076235;28;20566;-77
2022/10/21 04:42:11;;;;;;;20.47;18.40;;;15.40;97.20;;;;;;5063132;28;20465;-77
2022/10/21 04:44:39;;;;;;;27.60;25.63;;;15.40;97.10;;;;;;5071157;28;20478;-77
2022/10/21 04:47:06;;;;;;;17.90;16.10;;;15.40;97.30;;;;;;5071559;28;20462;-78
2022/10/21 04:49:34;;;;;;;23.77;21.87;;;15.40;97.20;;;;;;5073258;28;20461;-77
2022/10/21 04:52:01;;;;;;;26.03;23.50;;;15.50;97.30;;;;;;5072588;28;20460;-77
2022/10/21 04:54:28;;;;;;;19.87;18.27;;;15.50;97.20;;;;;;5075343;28;20478;-77
2022/10/21 04:56:55;;;;;;;24.57;22.63;;;15.50;97.10;;;;;;5058172;28;20461;-77
2022/10/21 04:59:22;;;;;;;21.40;19.50;;;15.60;96.80;;;;;;5068383;28;20457;-77
2022/10/21 05:01:49;;;;;;;21.67;19.67;;;15.60;96.80;;;;;;5061648;28;20842;-77
2022/10/21 05:04:15;;;;;;;33.13;30.90;;;15.60;96.70;;;;;;5059560;28;20489;-77
2022/10/21 05:06:44;;;;;;;24.50;22.60;;;15.70;96.60;;;;;;5076491;28;20965;-77
2022/10/21 05:09:11;;;;;;;22.90;21.17;;;15.70;96.40;;;;;;5052210;28;20541;-77
2022/10/21 05:11:38;;;;;;;19.80;18.00;;;15.70;96.50;;;;;;5048291;28;20453;-77
2022/10/21 05:14:04;;;;;;;19.67;18.07;;;15.70;96.30;;;;;;5053709;28;20476;-75
2022/10/21 05:16:31;;;;;;;17.87;16.30;;;15.70;96.30;;;;;;5081169;28;20568;-78
2022/10/21 05:18:59;;;;;;;20.57;18.53;;;15.90;96.20;;;;;;5064790;28;20478;-78
2022/10/21 05:21:26;;;;;;;18.43;16.47;;;15.90;95.80;;;;;;5056836;28;20460;-77
2022/10/21 05:23:56;;;;;;;23.57;21.67;;;15.80;95.80;;;;;;5049887;28;20465;-77
2022/10/21 05:26:23;;;;;;;18.33;16.50;;;15.90;95.80;;;;;;5064353;28;20970;-78
2022/10/21 05:28:50;;;;;;;24.43;22.57;;;15.80;95.80;;;;;;5060072;28;20462;-77
2022/10/21 05:31:17;;;;;;;19.13;17.40;;;15.80;96.00;;;;;;5057948;28;20455;-79
2022/10/21 05:33:44;;;;;;;18.30;14.07;;;15.90;96.00;;;;;;5061370;28;20466;-79
2022/10/21 05:36:11;;;;;;;24.63;22.73;;;15.90;96.20;;;;;;5067007;28;20469;-81
2022/10/21 05:38:38;;;;;;;15.30;13.73;;;15.80;96.30;;;;;;5055094;28;20514;-82
2022/10/21 05:41:07;;;;;;;18.47;15.50;;;16.00;96.20;;;;;;5071914;28;20549;-80
2022/10/21 05:43:34;;;;;;;22.73;17.37;;;16.00;96.10;;;;;;5075905;28;20484;-79
2022/10/21 05:46:01;;;;;;;15.60;14.37;;;16.00;96.00;;;;;;5078071;28;20489;-80
2022/10/21 05:48:28;;;;;;;17.93;16.37;;;16.10;96.30;;;;;;5053910;28;20465;-80
2022/10/21 05:50:56;;;;;;;23.27;21.10;;;16.10;96.40;;;;;;5072147;28;20540;-81
2022/10/21 05:53:26;;;;;;;19.67;17.97;;;16.10;96.30;;;;;;5060720;28;21029;-82
2022/10/21 05:55:57;;;;;;;17.03;15.37;;;16.20;96.20;;;;;;5052769;28;20478;-82
2022/10/21 05:58:26;;;;;;;20.40;14.90;;;16.20;96.30;;;;;;5055671;28;20534;-82
2022/10/21 06:00:54;;;;;;;21.87;19.73;;;16.30;96.10;;;;;;5055618;28;20542;-80
2022/10/21 06:03:22;;;;;;;20.83;19.00;;;16.30;96.20;;;;;;5061620;28;20493;-81
2022/10/21 06:05:49;;;;;;;15.10;13.57;;;16.30;96.20;;;;;;5072597;28;21474;-82
2022/10/21 06:08:17;;;;;;;14.30;13.10;;;16.50;95.90;;;;;;5059356;28;20474;-80
2022/10/21 06:10:44;;;;;;;14.80;13.60;;;16.50;95.80;;;;;;5063219;28;20463;-81
2022/10/21 06:13:11;;;;;;;15.17;13.70;;;16.50;95.70;;;;;;5074125;28;20533;-80
2022/10/21 06:15:39;;;;;;;21.90;20.30;;;16.60;95.60;;;;;;5069899;28;20524;-80
2022/10/21 06:18:06;;;;;;;19.53;17.80;;;16.60;95.70;;;;;;5077377;28;20452;-81
2022/10/21 06:20:33;;;;;;;16.23;14.53;;;16.60;95.60;;;;;;5055739;28;20503;-79
2022/10/21 06:23:00;;;;;;;18.10;16.60;;;16.60;95.60;;;;;;5059393;28;20977;-83
2022/10/21 06:25:27;;;;;;;16.77;15.03;;;16.60;95.50;;;;;;5076416;28;20485;-82
2022/10/21 06:27:54;;;;;;;18.30;15.57;;;16.60;95.50;;;;;;5077714;28;20896;-82
2022/10/21 06:30:21;;;;;;;16.60;14.90;;;16.60;95.70;;;;;;5082777;28;20483;-82
2022/10/21 06:32:50;;;;;;;16.87;15.10;;;16.60;95.80;;;;;;5079586;28;20464;-81
2022/10/21 06:35:17;;;;;;;18.07;16.13;;;16.60;95.80;;;;;;5090542;28;20472;-82
2022/10/21 06:37:44;;;;;;;14.67;13.00;;;16.60;95.70;;;;;;5076704;28;20504;-79
2022/10/21 06:40:11;;;;;;;17.20;15.80;;;16.60;95.70;;;;;;5064149;28;20957;-82
2022/10/21 06:42:38;;;;;;;17.20;15.07;;;16.60;96.00;;;;;;5079338;28;20552;-79
2022/10/21 06:45:06;;;;;;;19.60;18.10;;;16.60;95.90;;;;;;5056035;28;20569;-88
2022/10/21 06:47:33;;;;;;;27.70;25.70;;;16.60;95.80;;;;;;5056581;28;20463;-84
2022/10/21 06:50:02;;;;;;;20.33;18.47;;;16.60;95.80;;;;;;5057343;28;20455;-80
2022/10/21 06:52:30;;;;;;;19.03;17.20;;;16.60;96.10;;;;;;5075380;28;20473;-83
2022/10/21 06:54:57;;;;;;;19.23;15.70;;;16.60;96.30;;;;;;5069135;28;20479;-80
2022/10/21 06:57:24;;;;;;;20.27;15.20;;;16.60;96.20;;;;;;5069080;28;20541;-84
2022/10/21 06:59:50;;;;;;;16.17;14.67;;;16.60;96.40;;;;;;5071002;28;20469;-83
2022/10/21 07:02:17;;;;;;;19.73;16.90;;;16.50;96.50;;;;;;5075408;28;20463;-81
2022/10/21 07:04:47;;;;;;;25.17;22.90;;;16.50;96.60;;;;;;5063270;28;20482;-79
2022/10/21 07:07:16;;;;;;;18.30;16.40;;;16.60;96.50;;;;;;5069915;28;20459;-80
2022/10/21 07:09:43;;;;;;;16.63;15.23;;;16.50;96.70;;;;;;5067681;28;20850;-80
2022/10/21 07:12:10;;;;;;;16.57;15.17;;;16.50;96.80;;;;;;5075221;28;20478;-81
2022/10/21 07:14:36;;;;;;;17.00;15.20;;;16.50;97.00;;;;;;5071409;28;20596;-81
2022/10/21 07:17:03;;;;;;;17.37;15.87;;;16.60;96.90;;;;;;5075112;28;20553;-81
2022/10/21 07:19:31;;;;;;;16.70;15.30;;;16.60;96.70;;;;;;5067191;28;20515;-82
2022/10/21 07:21:58;;;;;;;16.87;14.27;;;16.60;96.70;;;;;;5062325;28;20455;-82
2022/10/21 07:24:27;;;;;;;20.33;18.27;;;16.60;96.50;;;;;;5068036;28;20576;-82
2022/10/21 07:26:54;;;;;;;19.50;17.73;;;16.70;96.30;;;;;;5080228;28;20517;-82
2022/10/21 07:29:21;;;;;;;18.23;16.40;;;16.70;96.20;;;;;;5075410;28;20454;-82
2022/10/21 07:31:48;;;;;;;17.07;15.30;;;16.70;96.30;;;;;;5072204;28;20458;-82
2022/10/21 07:34:15;;;;;;;20.13;18.20;;;16.80;96.00;;;;;;5073393;28;21049;-80
2022/10/21 07:36:46;;;;;;;20.10;18.40;;;16.90;95.90;;;;;;5057940;28;20450;-81
2022/10/21 07:39:17;;;;;;;21.27;19.17;;;17.00;95.60;;;;;;5073184;28;20556;-80
2022/10/21 07:41:47;;;;;;;18.83;17.00;;;16.90;95.30;;;;;;5073686;28;20839;-82
2022/10/21 07:44:15;;;;;;;16.37;14.83;;;16.90;95.60;;;;;;5076821;28;20500;-81
2022/10/21 07:46:43;;;;;;;25.40;23.27;;;16.90;95.80;;;;;;5083296;28;20509;-83
2022/10/21 07:49:11;;;;;;;22.20;17.60;;;16.90;95.90;;;;;;5081324;28;20482;-83
2022/10/21 07:51:39;;;;;;;15.37;13.70;;;16.90;95.70;;;;;;5083182;28;20486;-83
2022/10/21 07:54:06;;;;;;;21.77;19.93;;;17.00;95.50;;;;;;5103858;28;20497;-83
2022/10/21 07:56:35;;;;;;;16.63;14.90;;;17.00;95.50;;;;;;5088593;28;20561;-84
2022/10/21 07:59:05;;;;;;;18.03;15.87;;;17.00;95.60;;;;;;5089444;28;20489;-83
2022/10/21 08:01:32;;;;;;;16.17;14.50;;;17.00;95.40;;;;;;5078448;28;20469;-83
2022/10/21 08:03:59;;;;;;;19.67;17.10;;;17.10;95.30;;;;;;5085224;28;20481;-83
2022/10/21 08:06:27;;;;;;;15.50;14.00;;;17.10;95.20;;;;;;5084726;28;20478;-84
2022/10/21 08:08:56;;;;;;;25.53;22.83;;;17.00;95.30;;;;;;5079398;28;20450;-84
2022/10/21 08:11:24;;;;;;;24.37;22.07;;;17.10;95.40;;;;;;5079418;28;20469;-84
2022/10/21 08:13:51;;;;;;;21.53;15.50;;;17.10;95.30;;;;;;5085374;28;20536;-84
2022/10/21 08:16:19;;;;;;;20.40;18.60;;;17.10;94.80;;;;;;5097927;28;20504;-85
2022/10/21 08:18:46;;;;;;;24.77;22.73;;;17.10;95.10;;;;;;5086450;28;20464;-83
2022/10/21 08:21:13;;;;;;;16.67;15.27;;;17.20;94.90;;;;;;5076554;28;20512;-83
2022/10/21 08:23:40;;;;;;;16.23;14.70;;;17.20;94.80;;;;;;5101257;28;20473;-84
2022/10/21 08:26:11;;;;;;;27.73;25.73;;;17.20;94.70;;;;;;5075227;28;20648;-83
2022/10/21 08:28:38;;;;;;;26.73;24.80;;;17.20;94.50;;;;;;5075439;28;20494;-83
2022/10/21 08:31:07;;;;;;;18.10;16.00;;;17.20;94.60;;;;;;5076666;28;20496;-83
2022/10/21 08:33:36;;;;;;;23.20;21.40;;;17.10;94.40;;;;;;5096641;28;20461;-83
2022/10/21 08:36:05;;;;;;;17.20;15.40;;;17.10;94.70;;;;;;5068814;28;20470;-82
2022/10/21 08:38:33;;;;;;;17.87;16.37;;;17.20;94.40;;;;;;5082165;28;20455;-83
2022/10/21 08:41:01;;;;;;;19.00;16.70;;;17.20;94.30;;;;;;5089225;28;20489;-83
2022/10/21 08:43:31;;;;;;;30.13;28.03;;;17.20;94.40;;;;;;5074955;28;20454;-84
2022/10/21 08:46:04;;;;;;;24.83;22.20;;;17.20;94.40;;;;;;5067795;28;20528;-84
2022/10/21 08:48:38;;;;;;;22.40;20.67;;;17.10;94.60;;;;;;5078545;28;20486;-85
2022/10/21 08:51:06;;;;;;;19.47;17.70;;;17.10;94.60;;;;;;5074525;28;20526;-84
2022/10/21 08:53:39;;;;;;;18.40;16.27;;;17.10;94.70;;;;;;5069881;28;20967;-82
2022/10/21 08:56:10;;;;;;;18.53;16.97;;;17.10;94.40;;;;;;5081170;28;20477;-83
2022/10/21 08:58:36;;;;;;;16.40;14.80;;;17.10;94.40;;;;;;5079869;28;20469;-85
2022/10/21 09:01:14;;;;;;;18.83;17.30;;;17.10;94.70;;;;;;5106307;28;20476;-86
2022/10/21 09:03:53;;;;;;;17.60;15.80;;;17.10;94.90;;;;;;5073314;28;20517;-82
2022/10/21 09:06:27;;;;;;;18.30;15.93;;;17.00;95.50;;;;;;5073672;28;20481;-82
2022/10/21 09:09:05;;;;;;;16.37;15.00;;;17.00;96.00;;;;;;5078105;28;20983;-83
2022/10/21 09:11:46;;;;;;;16.73;14.70;;;17.10;96.00;;;;;;5080427;28;20455;-85
2022/10/21 09:14:39;;;;;;;16.90;15.23;;;17.10;96.10;;;;;;5078733;28;20564;-85
2022/10/21 09:17:20;;;;;;;21.53;19.53;;;17.10;96.00;;;;;;5075712;28;20482;-83
2022/10/21 09:20:00;;;;;;;17.80;16.10;;;17.10;95.90;;;;;;5078545;28;20467;-85
2022/10/21 09:22:45;;;;;;;21.57;19.63;;;17.20;96.20;;;;;;5085538;28;20457;-84
2022/10/21 09:25:22;;;;;;;23.63;21.83;;;17.30;96.00;;;;;;5075930;28;20501;-84
2022/10/21 09:27:50;;;;;;;16.47;14.93;;;17.40;95.60;;;;;;5075260;28;20462;-82
2022/10/21 09:30:20;;;;;;;19.03;17.30;;;17.50;95.60;;;;;;5086259;28;20499;-86
2022/10/21 09:32:49;;;;;;;22.20;20.27;;;17.70;95.10;;;;;;5077585;28;20525;-83
2022/10/21 09:35:25;;;;;;;14.77;13.70;;;18.00;93.80;;;;;;5084634;28;20482;-83
2022/10/21 09:37:57;;;;;;;14.63;13.23;;;18.10;93.40;;;;;;5083321;28;20953;-83
2022/10/21 09:40:27;;;;;;;15.83;14.53;;;18.30;92.90;;;;;;5079854;28;20493;-86
2022/10/21 09:42:57;;;;;;;18.80;16.80;;;18.30;91.80;;;;;;5076099;28;20469;-81
2022/10/21 09:45:30;;;;;;;26.70;25.03;;;18.20;91.50;;;;;;5078024;28;20492;-81
2022/10/21 09:48:00;;;;;;;18.77;17.37;;;18.20;91.60;;;;;;5073958;28;20537;-82
2022/10/21 09:50:29;;;;;;;16.57;15.30;;;18.20;91.90;;;;;;5072677;28;20559;-84
2022/10/21 09:53:02;;;;;;;17.90;16.60;;;18.20;91.80;;;;;;5074551;28;20459;-84
2022/10/21 09:55:31;;;;;;;19.33;17.33;;;18.20;92.10;;;;;;5076450;28;20477;-83
2022/10/21 09:58:00;;;;;;;17.17;16.13;;;18.40;92.10;;;;;;5085117;28;20514;-84
2022/10/21 10:00:42;;;;;;;16.23;15.00;;;18.50;90.80;;;;;;5103677;28;20485;-85
2022/10/21 10:03:10;;;;;;;19.87;18.60;;;18.60;90.20;;;;;;5074713;28;20460;-83
2022/10/21 10:05:42;;;;;;;22.33;15.93;;;18.80;89.40;;;;;;5089103;28;20498;-83
2022/10/21 10:08:29;;;;;;;16.40;15.30;;;18.90;89.00;;;;;;5082927;28;20450;-83
2022/10/21 10:11:15;;;;;;;25.33;23.67;;;19.20;88.50;;;;;;5083792;28;20470;-82
2022/10/21 10:13:45;;;;;;;19.33;18.07;;;19.30;87.80;;;;;;5087243;28;20462;-83
2022/10/21 10:16:15;;;;;;;25.67;24.33;;;19.40;87.30;;;;;;5080778;28;20525;-83
2022/10/21 10:18:43;;;;;;;20.03;18.90;;;19.40;87.00;;;;;;5082639;28;20454;-83
2022/10/21 10:21:12;;;;;;;21.43;20.13;;;19.40;86.80;;;;;;5103095;28;20484;-83
2022/10/21 10:23:44;;;;;;;33.33;31.43;;;19.40;86.50;;;;;;5075268;28;20459;-83
2022/10/21 10:26:18;;;;;;;20.73;19.37;;;19.40;86.50;;;;;;5085984;28;20481;-83
2022/10/21 10:28:50;;;;;;;29.73;28.00;;;19.50;85.60;;;;;;5084836;28;20508;-84
2022/10/21 10:31:27;;;;;;;27.77;26.27;;;19.40;85.80;;;;;;5078076;28;20491;-83
2022/10/21 10:33:57;;;;;;;24.67;23.20;;;19.40;85.90;;;;;;5075584;28;20480;-83
2022/10/21 10:36:32;;;;;;;22.13;20.63;;;19.40;85.40;;;;;;5110764;28;20453;-83
2022/10/21 10:39:02;;;;;;;21.70;19.90;;;19.30;85.50;;;;;;5085220;28;20475;-83
2022/10/21 10:41:32;;;;;;;25.30;23.73;;;19.30;85.70;;;;;;5102025;28;20958;-82
2022/10/21 10:43:59;;;;;;;23.40;21.70;;;19.30;85.50;;;;;;5107782;28;20473;-84
2022/10/21 10:46:29;;;;;;;31.60;29.90;;;19.30;85.70;;;;;;5100175;28;20482;-85
2022/10/21 10:48:57;;;;;;;23.73;22.27;;;19.30;85.50;;;;;;5080097;28;20455;-83
2022/10/21 10:51:28;;;;;;;21.63;19.90;;;19.20;86.00;;;;;;5066069;28;21073;-83
2022/10/21 10:54:15;;;;;;;21.53;20.03;;;19.20;85.80;;;;;;5096258;28;20497;-82
2022/10/21 10:56:47;;;;;;;21.03;19.63;;;19.20;86.00;;;;;;5074522;28;20871;-83
2022/10/21 10:59:21;;;;;;;22.17;20.70;;;19.30;86.10;;;;;;5082882;28;20521;-84
2022/10/21 11:01:57;;;;;;;23.40;22.13;;;19.40;85.50;;;;;;5085278;28;20523;-84
2022/10/21 11:04:28;;;;;;;22.57;21.23;;;19.40;85.40;;;;;;5090157;28;20522;-82
2022/10/21 11:07:04;;;;;;;29.20;27.50;;;19.50;84.90;;;;;;5081207;28;20553;-82
2022/10/21 11:09:33;;;;;;;26.83;25.23;;;19.50;84.70;;;;;;5069490;28;20478;-82
2022/10/21 11:12:03;;;;;;;22.30;20.80;;;19.60;84.60;;;;;;5072093;28;20794;-82
2022/10/21 11:14:30;;;;;;;22.00;20.80;;;19.60;84.40;;;;;;5068049;28;20510;-82
2022/10/21 11:17:05;;;;;;;22.57;21.57;;;19.70;83.80;;;;;;5083743;28;20525;-82
2022/10/21 11:19:41;;;;;;;23.70;22.30;;;19.80;83.70;;;;;;5078531;28;20461;-82
2022/10/21 11:22:19;;;;;;;25.13;23.73;;;20.00;83.10;;;;;;5073880;28;21009;-82
2022/10/21 11:24:56;;;;;;;34.47;32.77;;;20.10;83.00;;;;;;5078398;28;20477;-82
2022/10/21 11:27:34;;;;;;;30.90;29.00;;;20.30;82.40;;;;;;5072648;28;20566;-82
2022/10/21 11:30:10;;;;;;;24.67;23.23;;;20.30;81.60;;;;;;5060658;28;20486;-82
2022/10/21 11:32:48;;;;;;;30.87;28.87;;;20.50;80.60;;;;;;5072358;28;20541;-82
2022/10/21 11:35:32;;;;;;;41.03;38.70;;;20.60;81.00;;;;;;5075860;28;21019;-84
2022/10/21 11:38:21;;;;;;;23.87;22.53;;;20.70;80.80;;;;;;5081759;28;20470;-82
2022/10/21 11:40:49;;;;;;;24.97;23.77;;;20.70;80.10;;;;;;5061515;28;20473;-83
2022/10/21 11:43:28;;;;;;;25.97;24.57;;;20.70;79.90;;;;;;5062351;28;20459;-81
2022/10/21 11:46:01;;;;;;;30.13;28.33;;;20.70;79.80;;;;;;5088989;28;20578;-82
2022/10/21 11:48:57;;;;;;;27.90;26.50;;;20.90;79.40;;;;;;5091517;28;20459;-82
2022/10/21 11:51:39;;;;;;;36.20;34.30;;;21.00;79.10;;;;;;5070354;28;20491;-82
2022/10/21 11:54:42;;;;;;;30.50;28.50;;;21.10;78.40;;;;;;5067387;28;21035;-85
2022/10/21 11:57:18;;;;;;;30.10;28.40;;;21.20;77.90;;;;;;5068206;28;20453;-83
2022/10/21 12:00:01;;;;;;;35.10;33.27;;;21.10;78.10;;;;;;5065591;28;20993;-80
2022/10/21 12:02:41;;;;;;;38.70;37.00;;;21.10;77.60;;;;;;5082659;28;20540;-82
2022/10/21 12:05:17;;;;;;;30.23;28.63;;;21.20;77.80;;;;;;5069579;28;21000;-80
2022/10/21 12:07:58;;;;;;;36.07;33.73;;;21.30;77.40;;;;;;5082546;28;20477;-80
2022/10/21 12:10:31;;;;;;;26.63;25.03;;;21.10;76.70;;;;;;5082954;28;20553;-79
2022/10/21 12:13:04;;;;;;;29.27;27.97;;;21.00;78.00;;;;;;5065426;28;20462;-78
2022/10/21 12:15:37;;;;;;;38.47;36.63;;;20.90;77.90;;;;;;5048478;28;20565;-78
2022/10/21 12:18:06;;;;;;;30.80;29.13;;;20.90;77.90;;;;;;5054208;28;20450;-79
2022/10/21 12:20:33;;;;;;;31.30;29.50;;;20.80;77.70;;;;;;5072167;28;20450;-77
2022/10/21 12:23:03;;;;;;;28.40;26.80;;;20.70;78.00;;;;;;5078107;28;20536;-78
2022/10/21 12:25:38;;;;;;;27.30;26.10;;;20.70;78.20;;;;;;5051607;28;21255;-77
2022/10/21 12:28:13;;;;;;;34.60;33.00;;;20.60;78.30;;;;;;5065915;28;20481;-76
2022/10/21 12:30:49;;;;;;;30.97;29.57;;;20.50;78.80;;;;;;5050519;28;20464;-76
2022/10/21 12:33:19;;;;;;;30.30;29.00;;;20.40;78.60;;;;;;5057451;28;20533;-77
2022/10/21 12:35:51;;;;;;;29.13;27.83;;;20.30;78.70;;;;;;5052102;28;20471;-77
2022/10/21 12:38:25;;;;;;;28.47;27.10;;;20.40;79.10;;;;;;5067640;28;20447;-78
2022/10/21 12:41:35;;;;;;;31.43;29.53;;;20.40;78.80;;;;;;5061530;28;20455;-78
2022/10/21 12:44:14;;;;;;;26.83;25.50;;;20.40;78.70;;;;;;5030296;28;20459;-79
2022/10/21 12:46:43;;;;;;;33.27;31.37;;;20.30;78.80;;;;;;5075504;28;20556;-79